Time;durP1;ratioP1;P1;durP2;ratioP2;P2;SDS_P1;SDS_P2;PMS_P1;PMS_P2;Temp;Humidity;BMP_temperature;BMP_pressure;BME280_temperature;BME280_humidity;BME280_pressure;Samples;Min_cycle;Max_cycle;Signal;HPM_P1;HPM_P2
2021/07/25 00:00:53;;;;;;;;;;;24.20;99.90;;;;;;1893040;74;20241;-89
2021/07/25 00:03:33;;;;;;;;;;;24.20;99.90;;;;;;1907961;74;20180;-90
2021/07/25 00:06:20;;;;;;;;;;;24.20;99.90;;;;;;1892364;74;20262;-90
2021/07/25 00:08:49;;;;;;;;;;;24.20;99.90;;;;;;1829828;77;20208;-90
2021/07/25 00:11:20;;;;;;;;;;;24.20;99.90;;;;;;1878352;74;20128;-90
2021/07/25 00:13:54;;;;;;;;;;;24.20;99.90;;;;;;1901710;74;20198;-90
2021/07/25 00:16:23;;;;;;;;;;;24.20;99.90;;;;;;1895604;74;20269;-91
2021/07/25 00:18:55;;;;;;;;;;;24.20;99.90;;;;;;1854141;76;20452;-91
2021/07/25 00:21:29;;;;;;;;;;;24.20;99.90;;;;;;1815686;77;20137;-92
2021/07/25 00:23:59;;;;;;;;;;;24.20;99.90;;;;;;1851585;76;20196;-91
2021/07/25 00:26:37;;;;;;;;;;;24.20;99.90;;;;;;1823595;77;20176;-89
2021/07/25 00:29:00;;;;;;;;;;;24.20;99.90;;;;;;1841026;76;20206;-89
2021/07/25 00:31:30;;;;;;;;;;;24.20;99.90;;;;;;1902559;74;20205;-91
2021/07/25 00:34:00;;;;;;;;;;;24.20;99.90;;;;;;1892893;74;20230;-91
2021/07/25 00:36:30;;;;;;;;;;;24.20;99.90;;;;;;1884903;74;20175;-89
2021/07/25 00:39:00;;;;;;;;;;;24.20;99.90;;;;;;1903453;74;20421;-90
2021/07/25 00:41:30;;;;;;;;;;;24.20;99.90;;;;;;1890551;74;20174;-90
2021/07/25 00:44:01;;;;;;;;;;;24.20;99.90;;;;;;1897971;74;20210;-89
2021/07/25 00:46:31;;;;;;;;;;;24.20;99.90;;;;;;1895334;74;20229;-90
2021/07/25 00:49:02;;;;;;;;;;;24.20;99.90;;;;;;1840640;76;20176;-91
2021/07/25 00:51:33;;;;;;;;;;;24.20;99.90;;;;;;1854850;76;20213;-77
2021/07/25 00:54:03;;;;;;;;;;;24.20;99.90;;;;;;1854479;76;20405;-77
2021/07/25 00:56:33;;;;;;;;;;;24.20;99.90;;;;;;1855832;77;20165;-76
2021/07/25 00:59:04;;;;;;;;;;;24.20;99.90;;;;;;1856712;77;20190;-77
2021/07/25 01:01:34;;;;;;;;;;;24.20;99.90;;;;;;1851253;76;20122;-81
2021/07/25 01:04:05;;;;;;;;;;;24.20;99.90;;;;;;1856446;76;20218;-76
2021/07/25 01:06:37;;;;;;;;;;;24.20;99.90;;;;;;1857435;74;20482;-76
2021/07/25 01:09:07;;;;;;;;;;;24.20;99.90;;;;;;1862329;76;20550;-78
2021/07/25 01:11:41;;;;;;;;;;;24.20;99.90;;;;;;1864303;75;20127;-79
2021/07/25 01:14:12;;;;;;;;;;;24.20;99.90;;;;;;1844750;76;20291;-78
2021/07/25 01:16:41;;;;;;;;;;;24.20;99.90;;;;;;1844896;76;20182;-79
2021/07/25 01:19:13;;;;;;;;;;;24.20;99.90;;;;;;1842779;76;20213;-78
2021/07/25 01:21:42;;;;;;;;;;;24.10;99.90;;;;;;1848224;76;20216;-78
2021/07/25 01:24:15;;;;;;;;;;;24.10;99.90;;;;;;1850122;76;20183;-78
2021/07/25 01:26:50;;;;;;;;;;;24.10;99.90;;;;;;1856930;76;20209;-80
2021/07/25 01:29:18;;;;;;;;;;;24.10;99.90;;;;;;1841202;76;20206;-78
2021/07/25 01:31:47;;;;;;;;;;;24.10;99.90;;;;;;1844454;76;20241;-78
2021/07/25 01:34:42;;;;;;;;;;;24.10;99.90;;;;;;1852390;76;20196;-79
2021/07/25 01:37:13;;;;;;;;;;;24.20;99.90;;;;;;1859472;76;20217;-79
2021/07/25 01:39:43;;;;;;;;;;;24.20;99.90;;;;;;1842751;76;20252;-79
2021/07/25 01:42:13;;;;;;;;;;;24.20;99.90;;;;;;1845715;76;20179;-80
2021/07/25 01:44:47;;;;;;;;;;;24.20;99.90;;;;;;1848568;76;20594;-79
2021/07/25 01:47:32;;;;;;;;;;;24.20;99.90;;;;;;1848865;76;20482;-80
2021/07/25 01:49:58;;;;;;;;;;;24.20;99.90;;;;;;1860595;76;20254;-80
2021/07/25 01:52:28;;;;;;;;;;;24.10;99.90;;;;;;1852382;76;20291;-80
2021/07/25 01:54:57;;;;;;;;;;;24.20;99.90;;;;;;1859232;76;20209;-78
2021/07/25 01:57:27;;;;;;;;;;;24.20;99.90;;;;;;1855705;76;20241;-79
2021/07/25 01:59:57;;;;;;;;;;;24.10;99.90;;;;;;1863772;76;20237;-79
2021/07/25 02:02:27;;;;;;;;;;;24.20;99.90;;;;;;1850974;76;20298;-80
2021/07/25 02:05:07;;;;;;;;;;;24.10;99.90;;;;;;1852645;76;20135;-80
2021/07/25 02:07:59;;;;;;;;;;;24.10;99.90;;;;;;1852868;76;20138;-79
2021/07/25 02:10:26;;;;;;;;;;;24.10;99.90;;;;;;1877666;76;20512;-80
2021/07/25 02:12:57;;;;;;;;;;;24.10;99.90;;;;;;1873926;76;20174;-79
2021/07/25 02:15:26;;;;;;;;;;;24.10;99.90;;;;;;1863952;76;20568;-79
2021/07/25 02:17:56;;;;;;;;;;;24.10;99.90;;;;;;1857777;76;20254;-78
2021/07/25 02:20:26;;;;;;;;;;;24.10;99.90;;;;;;1866001;76;20226;-79
2021/07/25 02:22:56;;;;;;;;;;;24.10;99.90;;;;;;1861170;76;20521;-79
2021/07/25 02:25:26;;;;;;;;;;;24.10;99.90;;;;;;1862374;76;20267;-79
2021/07/25 02:27:55;;;;;;;;;;;24.10;99.90;;;;;;1862180;76;20316;-79
2021/07/25 02:30:25;;;;;;;;;;;24.10;99.90;;;;;;1863197;76;20165;-79
2021/07/25 02:32:55;;;;;;;;;;;24.10;99.90;;;;;;1861496;76;20227;-80
2021/07/25 02:35:25;;;;;;;;;;;24.10;99.90;;;;;;1860937;76;20445;-78
2021/07/25 02:37:55;;;;;;;;;;;24.20;99.90;;;;;;1854480;76;20153;-79
2021/07/25 02:40:25;;;;;;;;;;;24.20;99.90;;;;;;1858385;76;20234;-78
2021/07/25 02:42:55;;;;;;;;;;;24.20;99.90;;;;;;1857885;76;20210;-79
2021/07/25 02:45:32;;;;;;;;;;;24.20;99.90;;;;;;1860422;76;20261;-79
2021/07/25 02:47:59;;;;;;;;;;;24.20;99.90;;;;;;1852795;76;20218;-78
2021/07/25 02:50:29;;;;;;;;;;;24.20;99.90;;;;;;1850218;76;20190;-77
2021/07/25 02:52:59;;;;;;;;;;;24.20;99.90;;;;;;1865706;76;20121;-80
2021/07/25 02:55:31;;;;;;;;;;;24.20;99.90;;;;;;1858190;76;20577;-79
2021/07/25 02:58:00;;;;;;;;;;;24.30;99.90;;;;;;1847382;76;20232;-78
2021/07/25 03:00:32;;;;;;;;;;;24.30;99.90;;;;;;1853681;76;20228;-80
2021/07/25 03:03:01;;;;;;;;;;;24.30;99.90;;;;;;1861101;76;20241;-78
2021/07/25 03:05:32;;;;;;;;;;;24.30;99.90;;;;;;1796280;78;20235;-78
2021/07/25 03:08:04;;;;;;;;;;;24.30;99.90;;;;;;1851447;75;20281;-78
2021/07/25 03:10:34;;;;;;;;;;;24.30;99.90;;;;;;1872230;75;20463;-77
2021/07/25 03:13:04;;;;;;;;;;;24.30;99.90;;;;;;1890296;75;20507;-79
2021/07/25 03:15:34;;;;;;;;;;;24.30;99.90;;;;;;1878510;74;20251;-80
2021/07/25 03:18:04;;;;;;;;;;;24.30;99.90;;;;;;1878746;75;20216;-79
2021/07/25 03:20:34;;;;;;;;;;;24.40;99.90;;;;;;1877945;75;20176;-79
2021/07/25 03:23:03;;;;;;;;;;;24.40;99.90;;;;;;1882534;75;20251;-79
2021/07/25 03:25:39;;;;;;;;;;;24.40;99.90;;;;;;1878456;74;20184;-79
2021/07/25 03:28:09;;;;;;;;;;;24.40;99.90;;;;;;1855608;77;20192;-79
2021/07/25 03:30:40;;;;;;;;;;;24.40;99.90;;;;;;1869347;75;20172;-78
2021/07/25 03:33:14;;;;;;;;;;;24.40;99.90;;;;;;1879533;75;20223;-79
2021/07/25 03:35:44;;;;;;;;;;;24.50;99.90;;;;;;1878024;75;20140;-79
2021/07/25 03:38:14;;;;;;;;;;;24.40;99.90;;;;;;1881791;75;20259;-79
2021/07/25 03:40:44;;;;;;;;;;;24.50;99.90;;;;;;1884472;75;20215;-79
2021/07/25 03:43:15;;;;;;;;;;;24.50;99.90;;;;;;1881456;75;20437;-78
2021/07/25 03:45:46;;;;;;;;;;;24.50;99.90;;;;;;1886277;75;20180;-79
2021/07/25 03:48:21;;;;;;;;;;;24.50;99.90;;;;;;1885261;75;20286;-79
2021/07/25 03:50:50;;;;;;;;;;;24.50;99.90;;;;;;1870281;75;20560;-80
2021/07/25 03:53:24;;;;;;;;;;;24.50;99.90;;;;;;1874729;75;20160;-80
2021/07/25 03:55:54;;;;;;;;;;;24.50;99.90;;;;;;1878067;75;20169;-79
2021/07/25 03:58:24;;;;;;;;;;;24.60;99.90;;;;;;1875673;75;20217;-79
2021/07/25 04:00:54;;;;;;;;;;;24.60;99.90;;;;;;1872857;75;20156;-78
2021/07/25 04:03:24;;;;;;;;;;;24.60;99.90;;;;;;1876716;75;20157;-79
2021/07/25 04:05:54;;;;;;;;;;;24.60;99.90;;;;;;1877192;75;20529;-77
2021/07/25 04:08:23;;;;;;;;;;;24.60;99.90;;;;;;1877816;75;20161;-79
2021/07/25 04:10:53;;;;;;;;;;;24.60;99.90;;;;;;1840228;76;20337;-78
2021/07/25 04:13:27;;;;;;;;;;;24.60;99.90;;;;;;1841975;76;20210;-78
2021/07/25 04:15:57;;;;;;;;;;;24.60;99.90;;;;;;1810345;76;20192;-78
2021/07/25 04:18:29;;;;;;;;;;;24.60;99.90;;;;;;1841258;76;20233;-79
2021/07/25 04:20:58;;;;;;;;;;;24.60;99.90;;;;;;1853561;75;20468;-79
2021/07/25 04:23:28;;;;;;;;;;;24.60;99.90;;;;;;1845087;76;20271;-80
2021/07/25 04:26:01;;;;;;;;;;;24.60;99.90;;;;;;1844210;76;20210;-79
2021/07/25 04:28:29;;;;;;;;;;;24.60;99.90;;;;;;1849345;76;20215;-79
2021/07/25 04:30:59;;;;;;;;;;;24.60;99.90;;;;;;1850498;76;20264;-80
2021/07/25 04:33:30;;;;;;;;;;;24.60;99.90;;;;;;1851510;76;20258;-78
2021/07/25 04:36:00;;;;;;;;;;;24.70;99.90;;;;;;1837301;76;20289;-79
2021/07/25 04:38:30;;;;;;;;;;;24.60;99.90;;;;;;1844739;76;20224;-79
2021/07/25 04:41:01;;;;;;;;;;;24.70;99.90;;;;;;1848229;76;20258;-79
2021/07/25 04:43:31;;;;;;;;;;;24.70;99.90;;;;;;1839677;76;20299;-80
2021/07/25 04:46:02;;;;;;;;;;;24.70;99.90;;;;;;1845420;74;20149;-79
2021/07/25 04:48:33;;;;;;;;;;;24.70;99.90;;;;;;1848212;76;20209;-79
2021/07/25 04:51:05;;;;;;;;;;;24.70;99.90;;;;;;1843672;76;20236;-78
2021/07/25 04:53:36;;;;;;;;;;;24.80;99.90;;;;;;1845945;76;20619;-77
2021/07/25 04:56:07;;;;;;;;;;;24.80;99.90;;;;;;1843515;76;20532;-79
2021/07/25 04:58:41;;;;;;;;;;;24.80;99.90;;;;;;1839852;76;20206;-79
2021/07/25 05:01:16;;;;;;;;;;;24.80;99.90;;;;;;1839494;77;20176;-80
2021/07/25 05:03:52;;;;;;;;;;;24.90;99.90;;;;;;1838949;76;20219;-79
2021/07/25 05:06:23;;;;;;;;;;;25.00;99.90;;;;;;1823633;76;20199;-80
2021/07/25 05:08:52;;;;;;;;;;;25.00;99.90;;;;;;1894349;75;20132;-80
2021/07/25 05:11:23;;;;;;;;;;;25.10;99.90;;;;;;1918362;74;20228;-78
2021/07/25 05:13:54;;;;;;;;;;;25.10;99.90;;;;;;1904984;73;20230;-79
2021/07/25 05:16:26;;;;;;;;;;;25.20;99.90;;;;;;1872107;74;20179;-79
2021/07/25 05:18:57;;;;;;;;;;;25.30;99.90;;;;;;1873649;75;20278;-79
2021/07/25 05:21:28;;;;;;;;;;;25.30;99.90;;;;;;1840117;77;20435;-79
2021/07/25 05:23:59;;;;;;;;;;;25.40;99.90;;;;;;1902813;74;20242;-80
2021/07/25 05:26:29;;;;;;;;;;;25.40;99.90;;;;;;1896382;75;20180;-78
2021/07/25 05:28:59;;;;;;;;;;;25.50;99.90;;;;;;1893837;74;20203;-78
2021/07/25 05:31:31;;;;;;;;;;;25.60;99.90;;;;;;1919860;74;20583;-79
2021/07/25 05:34:04;;;;;;;;;;;25.70;99.90;;;;;;1901622;74;20522;-80
2021/07/25 05:36:33;;;;;;;;;;;25.80;99.90;;;;;;1900209;74;20128;-79
2021/07/25 05:39:03;;;;;;;;;;;25.90;99.90;;;;;;1913203;74;20183;-78
2021/07/25 05:41:32;;;;;;;;;;;26.00;99.90;;;;;;1902524;74;20221;-78
2021/07/25 05:44:02;;;;;;;;;;;26.10;99.90;;;;;;1900054;74;20143;-79
2021/07/25 05:46:32;;;;;;;;;;;26.10;99.90;;;;;;1905435;74;20177;-79
2021/07/25 05:49:07;;;;;;;;;;;26.10;99.90;;;;;;1894096;74;20218;-77
2021/07/25 05:51:37;;;;;;;;;;;26.10;99.90;;;;;;1905202;74;20150;-78
2021/07/25 05:54:07;;;;;;;;;;;26.00;99.90;;;;;;1902031;74;20181;-80
2021/07/25 05:56:40;;;;;;;;;;;26.00;99.90;;;;;;1898907;74;20192;-80
2021/07/25 05:59:11;;;;;;;;;;;26.00;99.90;;;;;;1896429;74;20207;-80
2021/07/25 06:01:41;;;;;;;;;;;26.00;99.90;;;;;;1893952;74;20223;-79
2021/07/25 06:04:10;;;;;;;;;;;26.00;99.90;;;;;;1863119;76;20253;-79
2021/07/25 06:06:41;;;;;;;;;;;26.00;99.90;;;;;;1863980;76;20174;-79
2021/07/25 06:09:11;;;;;;;;;;;25.90;99.90;;;;;;1853167;76;20534;-79
2021/07/25 06:11:43;;;;;;;;;;;25.90;99.90;;;;;;1847652;75;20196;-79
2021/07/25 06:14:13;;;;;;;;;;;25.90;99.90;;;;;;1871765;75;20498;-79
2021/07/25 06:16:42;;;;;;;;;;;25.90;99.90;;;;;;1850832;76;20178;-78
2021/07/25 06:19:12;;;;;;;;;;;26.00;99.90;;;;;;1851966;76;20465;-78
2021/07/25 06:21:42;;;;;;;;;;;26.00;99.90;;;;;;1916818;74;20201;-79
2021/07/25 06:24:12;;;;;;;;;;;26.10;99.90;;;;;;1860902;75;20197;-80
2021/07/25 06:26:43;;;;;;;;;;;26.10;99.90;;;;;;1849615;76;20516;-79
2021/07/25 06:29:13;;;;;;;;;;;26.20;99.90;;;;;;1834157;77;20247;-80
2021/07/25 06:31:42;;;;;;;;;;;26.20;99.90;;;;;;1830690;77;20240;-79
2021/07/25 06:34:12;;;;;;;;;;;26.40;99.90;;;;;;1881227;75;20287;-79
2021/07/25 06:36:41;;;;;;;;;;;26.40;99.90;;;;;;1850764;77;20534;-79
2021/07/25 06:39:11;;;;;;;;;;;26.40;99.90;;;;;;1879472;75;20211;-79
2021/07/25 06:41:40;;;;;;;;;;;26.50;99.90;;;;;;1878094;75;20236;-79
2021/07/25 06:44:10;;;;;;;;;;;26.50;99.90;;;;;;1879315;75;20227;-79
2021/07/25 06:46:40;;;;;;;;;;;26.50;99.90;;;;;;1876578;75;20150;-77
2021/07/25 06:49:10;;;;;;;;;;;26.50;99.90;;;;;;1871738;75;20449;-78
2021/07/25 06:51:40;;;;;;;;;;;26.50;99.90;;;;;;1879388;75;20498;-79
2021/07/25 06:54:10;;;;;;;;;;;26.60;99.90;;;;;;1885793;75;20284;-78
2021/07/25 06:56:40;;;;;;;;;;;26.60;99.90;;;;;;1872756;75;20471;-79
2021/07/25 06:59:10;;;;;;;;;;;26.60;99.90;;;;;;1877431;75;20240;-79
2021/07/25 07:01:40;;;;;;;;;;;26.60;99.90;;;;;;1861453;75;20682;-78
2021/07/25 07:04:12;;;;;;;;;;;26.60;99.90;;;;;;1866631;75;20244;-79
2021/07/25 07:06:42;;;;;;;;;;;26.60;99.90;;;;;;1869887;75;20155;-79
2021/07/25 07:09:11;;;;;;;;;;;26.60;99.90;;;;;;1876491;75;20599;-79
2021/07/25 07:14:17;;;;;;;;;;;26.60;99.90;;;;;;1864992;75;20203;-80
2021/07/25 07:16:46;;;;;;;;;;;26.60;99.90;;;;;;1871194;75;20251;-80
2021/07/25 07:19:16;;;;;;;;;;;26.60;99.90;;;;;;1855537;75;20183;-79
2021/07/25 07:21:47;;;;;;;;;;;26.70;99.90;;;;;;1849277;76;20209;-78
2021/07/25 07:24:17;;;;;;;;;;;26.70;99.90;;;;;;1850403;76;20198;-78
2021/07/25 07:26:50;;;;;;;;;;;26.80;99.90;;;;;;1853948;76;20182;-79
2021/07/25 07:29:19;;;;;;;;;;;26.90;99.90;;;;;;1852390;75;20233;-80
2021/07/25 07:31:50;;;;;;;;;;;26.90;99.90;;;;;;1851066;77;20190;-80
2021/07/25 07:34:20;;;;;;;;;;;26.90;99.90;;;;;;1857785;76;20158;-79
2021/07/25 07:36:49;;;;;;;;;;;27.00;99.90;;;;;;1843240;77;20488;-79
2021/07/25 07:39:19;;;;;;;;;;;27.00;99.90;;;;;;1886951;76;20223;-79
2021/07/25 07:41:48;;;;;;;;;;;27.00;99.90;;;;;;1887742;76;20187;-79
2021/07/25 07:44:18;;;;;;;;;;;27.10;99.90;;;;;;1886774;76;20136;-80
2021/07/25 07:46:48;;;;;;;;;;;27.10;99.90;;;;;;1879029;76;20163;-79
2021/07/25 07:49:18;;;;;;;;;;;27.20;99.90;;;;;;1842582;77;20227;-79
2021/07/25 07:51:48;;;;;;;;;;;27.30;99.90;;;;;;1835730;77;20173;-77
2021/07/25 07:54:18;;;;;;;;;;;27.40;99.90;;;;;;1875983;75;20214;-78
2021/07/25 07:56:48;;;;;;;;;;;27.60;99.90;;;;;;1876694;75;20176;-79
2021/07/25 07:59:19;;;;;;;;;;;27.70;99.90;;;;;;1876268;75;20133;-79
2021/07/25 08:01:49;;;;;;;;;;;27.80;99.90;;;;;;1875506;75;20192;-78
2021/07/25 08:04:19;;;;;;;;;;;27.80;99.90;;;;;;1877809;75;20209;-78
2021/07/25 08:06:49;;;;;;;;;;;27.80;99.90;;;;;;1869132;76;20121;-80
2021/07/25 08:09:19;;;;;;;;;;;27.80;99.90;;;;;;1873175;75;20160;-79
2021/07/25 08:11:49;;;;;;;;;;;27.90;99.90;;;;;;1871014;75;20287;-80
2021/07/25 08:14:19;;;;;;;;;;;27.90;99.90;;;;;;1883649;75;20173;-79
2021/07/25 08:16:49;;;;;;;;;;;28.00;99.90;;;;;;1897556;75;20216;-79
2021/07/25 08:19:19;;;;;;;;;;;28.10;99.90;;;;;;1898164;75;20205;-79
2021/07/25 08:21:49;;;;;;;;;;;28.30;99.90;;;;;;1889357;75;20249;-77
2021/07/25 08:24:20;;;;;;;;;;;28.40;99.90;;;;;;1881848;75;20297;-79
2021/07/25 08:26:49;;;;;;;;;;;28.50;99.90;;;;;;1885305;75;20237;-78
2021/07/25 08:29:21;;;;;;;;;;;28.50;99.90;;;;;;1873484;75;20185;-78
2021/07/25 08:31:51;;;;;;;;;;;28.60;99.90;;;;;;1886793;75;20156;-78
2021/07/25 08:34:20;;;;;;;;;;;28.70;99.90;;;;;;1876216;76;20731;-80
2021/07/25 08:36:50;;;;;;;;;;;28.70;99.90;;;;;;1876602;76;20148;-79
2021/07/25 08:39:19;;;;;;;;;;;28.70;99.90;;;;;;1878223;76;20147;-79
2021/07/25 08:42:22;;;;;;;;;;;28.70;99.90;;;;;;1877538;76;20152;-79
2021/07/25 08:44:53;;;;;;;;;;;28.70;99.90;;;;;;1880000;76;20195;-79
2021/07/25 08:47:24;;;;;;;;;;;28.70;99.90;;;;;;1880112;75;20124;-79
2021/07/25 08:49:57;;;;;;;;;;;28.70;99.90;;;;;;1879265;76;20132;-79
2021/07/25 08:52:28;;;;;;;;;;;28.70;99.90;;;;;;1880175;76;20203;-78
2021/07/25 08:54:59;;;;;;;;;;;28.50;99.90;;;;;;1880127;76;20407;-78
2021/07/25 08:57:30;;;;;;;;;;;28.40;99.90;;;;;;1879979;76;20129;-79
2021/07/25 09:00:00;;;;;;;;;;;28.30;99.90;;;;;;1880257;76;20404;-79
2021/07/25 09:02:31;;;;;;;;;;;28.30;99.90;;;;;;1880378;76;20117;-79
2021/07/25 09:05:01;;;;;;;;;;;28.20;99.90;;;;;;1880296;75;20192;-79
2021/07/25 09:07:32;;;;;;;;;;;28.20;99.90;;;;;;1880324;76;20207;-79
2021/07/25 09:10:03;;;;;;;;;;;28.20;99.90;;;;;;1880084;76;20120;-78
2021/07/25 09:12:33;;;;;;;;;;;28.20;99.90;;;;;;1880146;76;20183;-79
2021/07/25 09:15:04;;;;;;;;;;;28.20;99.90;;;;;;1880252;76;20192;-79
2021/07/25 09:17:34;;;;;;;;;;;28.20;99.90;;;;;;1880461;76;20550;-80
2021/07/25 09:20:05;;;;;;;;;;;28.20;99.90;;;;;;1880295;76;20155;-79
2021/07/25 09:22:36;;;;;;;;;;;28.20;99.90;;;;;;1879365;76;20427;-80
2021/07/25 09:25:06;;;;;;;;;;;28.20;99.90;;;;;;1880364;75;20132;-80
2021/07/25 09:27:36;;;;;;;;;;;28.20;99.90;;;;;;1880268;76;20129;-79
2021/07/25 09:30:08;;;;;;;;;;;28.20;99.90;;;;;;1880104;76;20163;-79
2021/07/25 09:32:38;;;;;;;;;;;28.10;99.90;;;;;;1878882;76;20125;-79
2021/07/25 09:35:27;;;;;;;;;;;28.10;99.90;;;;;;1880325;76;20160;-80
2021/07/25 09:37:58;;;;;;;;;;;28.00;99.90;;;;;;1819878;78;20183;-79
2021/07/25 09:40:28;;;;;;;;;;;28.00;99.90;;;;;;1818654;77;20486;-79
2021/07/25 09:43:00;;;;;;;;;;;28.00;99.90;;;;;;1819984;76;20214;-79
2021/07/25 09:45:30;;;;;;;;;;;27.90;99.90;;;;;;1815740;76;20178;-79
2021/07/25 09:48:00;;;;;;;;;;;27.90;99.90;;;;;;1816643;79;20158;-80
2021/07/25 09:50:30;;;;;;;;;;;27.90;99.90;;;;;;1816607;78;20139;-80
2021/07/25 09:53:00;;;;;;;;;;;27.90;99.90;;;;;;1817743;79;20210;-80
2021/07/25 09:55:30;;;;;;;;;;;27.90;99.90;;;;;;1818876;79;20244;-78
2021/07/25 09:58:00;;;;;;;;;;;27.80;99.90;;;;;;1819232;79;20217;-79
2021/07/25 10:00:31;;;;;;;;;;;27.80;99.90;;;;;;1818614;77;20197;-80
2021/07/25 10:03:01;;;;;;;;;;;27.70;99.90;;;;;;1817731;77;20252;-79
2021/07/25 10:05:32;;;;;;;;;;;27.70;99.90;;;;;;1797982;78;20174;-79
2021/07/25 10:08:02;;;;;;;;;;;27.60;99.90;;;;;;1817517;78;20228;-78
2021/07/25 10:10:33;;;;;;;;;;;27.60;99.90;;;;;;1815277;78;20176;-78
2021/07/25 10:13:03;;;;;;;;;;;27.50;99.90;;;;;;1799368;78;20493;-80
2021/07/25 10:15:33;;;;;;;;;;;27.50;99.90;;;;;;1795489;78;20164;-78
2021/07/25 10:18:03;;;;;;;;;;;27.40;99.90;;;;;;1819505;77;20192;-79
2021/07/25 10:20:33;;;;;;;;;;;27.40;99.90;;;;;;1818355;78;20332;-79
2021/07/25 10:23:03;;;;;;;;;;;27.40;99.90;;;;;;1786791;78;20175;-79
2021/07/25 10:25:34;;;;;;;;;;;27.30;99.90;;;;;;1786254;78;20222;-79
2021/07/25 10:28:05;;;;;;;;;;;27.30;99.90;;;;;;1817792;77;20227;-78
2021/07/25 10:30:35;;;;;;;;;;;27.30;99.90;;;;;;1799168;78;20224;-78
2021/07/25 10:33:05;;;;;;;;;;;27.30;99.90;;;;;;1818598;76;20494;-79
2021/07/25 10:35:35;;;;;;;;;;;27.20;99.90;;;;;;1811338;78;20409;-79
2021/07/25 10:38:06;;;;;;;;;;;27.20;99.90;;;;;;1812215;78;20247;-78
2021/07/25 10:40:36;;;;;;;;;;;27.20;99.90;;;;;;1855741;75;20130;-78
2021/07/25 10:43:07;;;;;;;;;;;27.20;99.90;;;;;;1788591;77;20162;-77
2021/07/25 10:45:36;;;;;;;;;;;27.20;99.90;;;;;;1858654;76;20177;-79
2021/07/25 10:48:07;;;;;;;;;;;27.20;99.90;;;;;;1828986;77;20917;-78
2021/07/25 10:50:37;;;;;;;;;;;27.20;99.90;;;;;;1858326;76;20151;-77
2021/07/25 10:53:07;;;;;;;;;;;27.10;99.90;;;;;;1854117;75;20186;-79
2021/07/25 10:55:38;;;;;;;;;;;27.10;99.90;;;;;;1857697;75;20211;-80
2021/07/25 10:58:09;;;;;;;;;;;27.10;99.90;;;;;;1840821;76;20205;-78
2021/07/25 11:00:40;;;;;;;;;;;27.10;99.90;;;;;;1822709;76;20361;-80
2021/07/25 11:03:12;;;;;;;;;;;27.10;99.90;;;;;;1851521;75;20260;-78
2021/07/25 11:05:46;;;;;;;;;;;27.10;99.90;;;;;;1856326;75;20219;-78
2021/07/25 11:08:17;;;;;;;;;;;27.10;99.90;;;;;;1854583;76;20629;-79
2021/07/25 11:10:48;;;;;;;;;;;27.10;99.90;;;;;;1833103;76;20196;-79
2021/07/25 11:13:17;;;;;;;;;;;27.00;99.90;;;;;;1863428;75;20196;-79
2021/07/25 11:15:49;;;;;;;;;;;27.00;99.90;;;;;;1858865;74;20247;-79
2021/07/25 11:18:20;;;;;;;;;;;27.00;99.90;;;;;;1866998;75;20209;-80
2021/07/25 11:20:51;;;;;;;;;;;27.00;99.90;;;;;;1870919;75;20531;-79
2021/07/25 11:23:22;;;;;;;;;;;27.00;99.90;;;;;;1878500;75;20199;-78
2021/07/25 11:25:53;;;;;;;;;;;27.00;99.90;;;;;;1872747;75;20222;-76
2021/07/25 11:28:24;;;;;;;;;;;27.00;99.90;;;;;;1867060;74;20237;-79
2021/07/25 11:30:55;;;;;;;;;;;26.90;99.90;;;;;;1864328;75;20241;-79
2021/07/25 11:33:27;;;;;;;;;;;26.90;99.90;;;;;;1865363;74;20503;-80
2021/07/25 11:35:57;;;;;;;;;;;26.90;99.90;;;;;;1868454;75;20245;-79
2021/07/25 11:38:27;;;;;;;;;;;26.80;99.90;;;;;;1858662;75;20193;-80
2021/07/25 11:40:57;;;;;;;;;;;26.80;99.90;;;;;;1881174;75;20564;-79
2021/07/25 11:43:27;;;;;;;;;;;26.80;99.90;;;;;;1879033;75;20191;-87
2021/07/25 11:45:56;;;;;;;;;;;26.80;99.90;;;;;;1883497;75;20375;-87
2021/07/25 11:48:26;;;;;;;;;;;26.80;99.90;;;;;;1880854;75;20425;-87
2021/07/25 11:50:55;;;;;;;;;;;26.70;99.90;;;;;;1882098;75;20237;-87
2021/07/25 11:53:26;;;;;;;;;;;26.70;99.90;;;;;;1883288;75;20129;-86
2021/07/25 11:56:00;;;;;;;;;;;26.70;99.90;;;;;;1836706;77;20262;-87
2021/07/25 11:58:32;;;;;;;;;;;26.60;99.90;;;;;;1826801;77;20316;-86
2021/07/25 12:01:03;;;;;;;;;;;26.60;99.90;;;;;;1816280;78;20587;-87
2021/07/25 12:03:33;;;;;;;;;;;26.60;99.90;;;;;;1810953;77;20210;-87
2021/07/25 12:06:07;;;;;;;;;;;26.60;99.90;;;;;;1802068;78;20203;-87
2021/07/25 12:08:36;;;;;;;;;;;26.60;99.90;;;;;;1808365;77;20294;-87
2021/07/25 12:11:06;;;;;;;;;;;26.50;99.90;;;;;;1811545;78;20239;-88
2021/07/25 12:13:46;;;;;;;;;;;26.50;99.90;;;;;;1808747;78;20157;-87
2021/07/25 12:16:15;;;;;;;;;;;26.50;99.90;;;;;;1838615;76;20253;-87
2021/07/25 12:18:46;;;;;;;;;;;26.50;99.90;;;;;;1883076;75;20299;-87
2021/07/25 12:21:17;;;;;;;;;;;26.50;99.90;;;;;;1881195;75;20545;-87
2021/07/25 12:23:47;;;;;;;;;;;26.50;99.90;;;;;;1879154;75;20257;-87
2021/07/25 12:26:21;;;;;;;;;;;26.40;99.90;;;;;;1878442;75;20239;-87
2021/07/25 12:28:50;;;;;;;;;;;26.40;99.90;;;;;;1874458;76;20246;-87
2021/07/25 12:31:24;;;;;;;;;;;26.40;99.90;;;;;;1808857;77;20176;-87
2021/07/25 12:33:55;;;;;;;;;;;26.40;99.90;;;;;;1836700;76;20611;-87
2021/07/25 12:36:26;;;;;;;;;;;26.40;99.90;;;;;;1799922;78;20140;-87
2021/07/25 12:38:57;;;;;;;;;;;26.40;99.90;;;;;;1812232;76;20243;-85
2021/07/25 12:41:27;;;;;;;;;;;26.40;99.90;;;;;;1861123;76;20228;-86
2021/07/25 12:44:03;;;;;;;;;;;26.40;99.90;;;;;;1857232;75;20202;-85
2021/07/25 12:46:30;;;;;;;;;;;26.40;99.90;;;;;;1856520;76;20206;-86
2021/07/25 12:49:04;;;;;;;;;;;26.40;99.90;;;;;;1825866;76;20438;-87
2021/07/25 12:51:41;;;;;;;;;;;26.40;99.90;;;;;;1816491;77;20206;-88
2021/07/25 12:54:25;;;;;;;;;;;26.40;99.90;;;;;;1810821;77;20552;-87
2021/07/25 12:56:57;;;;;;;;;;;26.30;99.90;;;;;;1846264;76;20209;-87
2021/07/25 12:59:29;;;;;;;;;;;26.30;99.90;;;;;;1794520;77;20204;-88
2021/07/25 13:04:29;;;;;;;;;;;26.30;99.90;;;;;;1847495;76;20230;-88
2021/07/25 13:07:01;;;;;;;;;;;26.30;99.90;;;;;;1819112;79;20184;-88
2021/07/25 13:09:33;;;;;;;;;;;26.30;99.90;;;;;;1850070;77;20217;-87
2021/07/25 13:12:09;;;;;;;;;;;26.30;99.90;;;;;;1833296;77;20255;-87
2021/07/25 13:14:35;;;;;;;;;;;26.30;99.90;;;;;;1849667;77;20194;-87
2021/07/25 13:17:05;;;;;;;;;;;26.30;99.90;;;;;;1837361;77;20298;-87
2021/07/25 13:19:35;;;;;;;;;;;26.30;99.90;;;;;;1829849;77;20206;-87
2021/07/25 13:22:05;;;;;;;;;;;26.30;99.90;;;;;;1818139;77;20212;-86
2021/07/25 13:24:34;;;;;;;;;;;26.30;99.90;;;;;;1848348;76;20501;-87
2021/07/25 13:27:04;;;;;;;;;;;26.30;99.90;;;;;;1834618;77;20214;-87
2021/07/25 13:29:35;;;;;;;;;;;26.30;99.90;;;;;;1886153;75;20814;-86
2021/07/25 13:32:07;;;;;;;;;;;26.30;99.90;;;;;;1884559;74;20479;-87
2021/07/25 13:34:37;;;;;;;;;;;26.30;99.90;;;;;;1887417;74;20258;-86
2021/07/25 13:37:08;;;;;;;;;;;26.30;99.90;;;;;;1891293;75;20207;-87
2021/07/25 13:39:39;;;;;;;;;;;26.30;99.90;;;;;;1842528;75;20141;-87
2021/07/25 13:42:33;;;;;;;;;;;26.30;99.90;;;;;;1804661;77;20270;-87
2021/07/25 13:45:08;;;;;;;;;;;26.30;99.90;;;;;;1765572;80;20268;-88
2021/07/25 13:47:36;;;;;;;;;;;26.30;99.90;;;;;;1794992;79;20281;-86
2021/07/25 13:50:07;;;;;;;;;;;26.20;99.90;;;;;;1796503;79;20534;-88
2021/07/25 13:52:40;;;;;;;;;;;26.30;99.90;;;;;;1798115;79;20563;-87
2021/07/25 13:55:11;;;;;;;;;;;26.30;99.90;;;;;;1796908;80;20212;-86
2021/07/25 13:57:42;;;;;;;;;;;26.30;99.90;;;;;;1783800;79;20243;-87
2021/07/25 14:00:12;;;;;;;;;;;26.20;99.90;;;;;;1797676;80;20590;-87
2021/07/25 14:02:44;;;;;;;;;;;26.30;99.90;;;;;;1764911;80;20264;-86
2021/07/25 14:05:26;;;;;;;;;;;26.20;99.90;;;;;;1815301;78;20240;-87
2021/07/25 14:08:07;;;;;;;;;;;26.20;99.90;;;;;;1804950;77;20223;-87
2021/07/25 14:10:39;;;;;;;;;;;26.20;99.90;;;;;;1814147;76;20266;-87
2021/07/25 14:13:05;;;;;;;;;;;26.20;99.90;;;;;;1815884;79;20219;-87
2021/07/25 14:15:41;;;;;;;;;;;26.20;99.90;;;;;;1814189;79;20206;-87
2021/07/25 14:18:13;;;;;;;;;;;26.20;99.90;;;;;;1772816;81;20316;-86
2021/07/25 14:21:36;;;;;;;;;;;26.20;99.90;;;;;;1877817;74;20179;-87
2021/07/25 14:23:45;;;;;;;;;;;26.20;99.90;;;;;;1828492;77;20206;-86
2021/07/25 14:26:28;;;;;;;;;;;26.20;99.90;;;;;;1835615;77;20456;-88
2021/07/25 14:29:01;;;;;;;;;;;26.20;99.90;;;;;;1837865;76;20270;-86
2021/07/25 14:31:33;;;;;;;;;;;26.20;99.90;;;;;;1836633;77;20248;-87
2021/07/25 14:34:06;;;;;;;;;;;26.20;99.90;;;;;;1840711;77;20179;-87
2021/07/25 14:36:35;;;;;;;;;;;26.20;99.90;;;;;;1790255;78;20208;-87
2021/07/25 14:39:10;;;;;;;;;;;26.20;99.90;;;;;;1832320;76;20215;-86
2021/07/25 14:41:51;;;;;;;;;;;26.20;99.90;;;;;;1839610;77;20205;-88
2021/07/25 14:44:16;;;;;;;;;;;26.20;99.90;;;;;;1807116;77;20170;-87